Bejaia, Algeria
Current Conditions -  °F | °C
As of 2:00 PM on Thursday 18 Dec 2014 (Local Time) from DAAE Reporting Station
Broken Clouds Broken Clouds  
Wind Chill: 59°   Ceiling: 4300
Heat Index: 59°   Visibility: 6mi
Dew Point: 52°   Wind: 12mph
Humidity: 77%   Direction: 270°W
Pressure: 30.21"   Gusts: NA
Location:  36.54°N, 4.97°E
Report Text: DAAE 181300Z 27010KT 9000 FEW020 BKN043 15/11 Q1023
Loading
Personal Weather Stations






























Interactive Weather Map New forecast layout! Learn more

10-Day Weather Forecast

Advertisements
Track Severe Weather on mobile